< < Back
Terminal Aerodrome Forecast


Current Version              Previous Versions:   1  2  3  4  5  6  7  8  9  

Terminal Aerodrome Forecast

924
FTUS44 KHUN 161720
TAFHSV
TAF
KHSV 161720Z 1618/1718 12008KT P6SM SKC
     FM171400 14014KT P6SM FEW250=

Latest METAR

514
SAUS80 KWBC 162200
MTRHSV
METAR KHSV 162153Z 13007G14KT 10SM FEW250 18/M01 A3016 RMK AO2 SLP212
T01781011


USA.gov is the U.S. government's official web portal to all federal, state and local government web resources and services.